sensor_id;sensor_type;location;lat;lon;timestamp;P1;P2;P0
63915;PMS5003;50094;51.356;-0.196;2022-07-19T00:01:27;36;26;
63915;PMS5003;50094;51.356;-0.196;2022-07-19T00:03:55;26;23;
63915;PMS5003;50094;51.356;-0.196;2022-07-19T00:06:23;26;21;
63915;PMS5003;50094;51.356;-0.196;2022-07-19T00:08:50;21;20;
63915;PMS5003;50094;51.356;-0.196;2022-07-19T00:11:18;26;18;
63915;PMS5003;50094;51.356;-0.196;2022-07-19T00:13:45;25;22;
63915;PMS5003;50094;51.356;-0.196;2022-07-19T00:16:13;30;24;
63915;PMS5003;50094;51.356;-0.196;2022-07-19T00:18:40;26;23;
63915;PMS5003;50094;51.356;-0.196;2022-07-19T00:21:07;20;16;
63915;PMS5003;50094;51.356;-0.196;2022-07-19T00:23:35;24;22;
63915;PMS5003;50094;51.356;-0.196;2022-07-19T00:26:02;26;22;
63915;PMS5003;50094;51.356;-0.196;2022-07-19T00:28:30;24;18;
63915;PMS5003;50094;51.356;-0.196;2022-07-19T00:30:57;21;16;
63915;PMS5003;50094;51.356;-0.196;2022-07-19T00:33:25;30;22;
63915;PMS5003;50094;51.356;-0.196;2022-07-19T00:35:52;22;18;
63915;PMS5003;50094;51.356;-0.196;2022-07-19T00:38:20;21;17;
63915;PMS5003;50094;51.356;-0.196;2022-07-19T00:40:47;26;17;
63915;PMS5003;50094;51.356;-0.196;2022-07-19T00:43:14;20;17;
63915;PMS5003;50094;51.356;-0.196;2022-07-19T00:45:42;23;16;
63915;PMS5003;50094;51.356;-0.196;2022-07-19T00:48:08;23;18;
63915;PMS5003;50094;51.356;-0.196;2022-07-19T00:50:36;19;17;
63915;PMS5003;50094;51.356;-0.196;2022-07-19T00:53:03;19;12;
63915;PMS5003;50094;51.356;-0.196;2022-07-19T00:55:31;18;14;
63915;PMS5003;50094;51.356;-0.196;2022-07-19T00:57:59;19;13;
63915;PMS5003;50094;51.356;-0.196;2022-07-19T01:00:29;20;19;
63915;PMS5003;50094;51.356;-0.196;2022-07-19T01:02:59;15;11;
63915;PMS5003;50094;51.356;-0.196;2022-07-19T01:05:27;15;14;
63915;PMS5003;50094;51.356;-0.196;2022-07-19T01:07:55;15;13;
63915;PMS5003;50094;51.356;-0.196;2022-07-19T01:10:22;15;14;
63915;PMS5003;50094;51.356;-0.196;2022-07-19T01:12:50;15;11;
63915;PMS5003;50094;51.356;-0.196;2022-07-19T01:15:19;16;14;
63915;PMS5003;50094;51.356;-0.196;2022-07-19T01:17:48;15;15;
63915;PMS5003;50094;51.356;-0.196;2022-07-19T01:20:16;16;16;
63915;PMS5003;50094;51.356;-0.196;2022-07-19T01:22:45;17;10;
63915;PMS5003;50094;51.356;-0.196;2022-07-19T01:25:13;17;11;
63915;PMS5003;50094;51.356;-0.196;2022-07-19T01:27:42;21;19;
63915;PMS5003;50094;51.356;-0.196;2022-07-19T01:30:12;12;11;
63915;PMS5003;50094;51.356;-0.196;2022-07-19T01:32:41;14;13;
63915;PMS5003;50094;51.356;-0.196;2022-07-19T01:35:08;10;9;
63915;PMS5003;50094;51.356;-0.196;2022-07-19T01:37:36;14;14;
63915;PMS5003;50094;51.356;-0.196;2022-07-19T01:40:05;11;9;
63915;PMS5003;50094;51.356;-0.196;2022-07-19T01:42:34;13;11;
63915;PMS5003;50094;51.356;-0.196;2022-07-19T01:45:02;14;11;
63915;PMS5003;50094;51.356;-0.196;2022-07-19T01:47:30;15;9;
63915;PMS5003;50094;51.356;-0.196;2022-07-19T01:49:57;14;12;
63915;PMS5003;50094;51.356;-0.196;2022-07-19T01:52:25;13;10;
63915;PMS5003;50094;51.356;-0.196;2022-07-19T01:54:52;22;17;
63915;PMS5003;50094;51.356;-0.196;2022-07-19T01:57:19;14;13;
63915;PMS5003;50094;51.356;-0.196;2022-07-19T01:59:47;13;11;
63915;PMS5003;50094;51.356;-0.196;2022-07-19T02:02:15;17;15;
63915;PMS5003;50094;51.356;-0.196;2022-07-19T02:04:43;15;14;
63915;PMS5003;50094;51.356;-0.196;2022-07-19T02:07:10;9;8;
63915;PMS5003;50094;51.356;-0.196;2022-07-19T02:09:37;13;12;
63915;PMS5003;50094;51.356;-0.196;2022-07-19T02:12:05;15;10;
63915;PMS5003;50094;51.356;-0.196;2022-07-19T02:14:32;11;8;
63915;PMS5003;50094;51.356;-0.196;2022-07-19T02:17:00;12;10;
63915;PMS5003;50094;51.356;-0.196;2022-07-19T02:19:27;10;9;
63915;PMS5003;50094;51.356;-0.196;2022-07-19T02:21:55;11;9;
63915;PMS5003;50094;51.356;-0.196;2022-07-19T02:24:22;10;8;
63915;PMS5003;50094;51.356;-0.196;2022-07-19T02:26:49;11;9;
63915;PMS5003;50094;51.356;-0.196;2022-07-19T02:29:16;9;8;
63915;PMS5003;50094;51.356;-0.196;2022-07-19T02:31:44;12;8;
63915;PMS5003;50094;51.356;-0.196;2022-07-19T02:34:11;11;10;
63915;PMS5003;50094;51.356;-0.196;2022-07-19T02:36:38;14;13;
63915;PMS5003;50094;51.356;-0.196;2022-07-19T02:39:06;9;8;
63915;PMS5003;50094;51.356;-0.196;2022-07-19T02:41:34;11;10;
63915;PMS5003;50094;51.356;-0.196;2022-07-19T02:44:02;12;9;
63915;PMS5003;50094;51.356;-0.196;2022-07-19T02:46:29;10;9;
63915;PMS5003;50094;51.356;-0.196;2022-07-19T02:48:57;10;8;
63915;PMS5003;50094;51.356;-0.196;2022-07-19T02:51:24;10;8;
63915;PMS5003;50094;51.356;-0.196;2022-07-19T02:53:51;15;10;
63915;PMS5003;50094;51.356;-0.196;2022-07-19T02:56:19;8;8;
63915;PMS5003;50094;51.356;-0.196;2022-07-19T02:58:46;9;9;
63915;PMS5003;50094;51.356;-0.196;2022-07-19T03:01:14;8;6;
63915;PMS5003;50094;51.356;-0.196;2022-07-19T03:03:41;11;8;
63915;PMS5003;50094;51.356;-0.196;2022-07-19T03:06:09;9;7;
63915;PMS5003;50094;51.356;-0.196;2022-07-19T03:08:36;8;8;
63915;PMS5003;50094;51.356;-0.196;2022-07-19T03:11:04;9;8;
63915;PMS5003;50094;51.356;-0.196;2022-07-19T03:13:31;9;8;
63915;PMS5003;50094;51.356;-0.196;2022-07-19T03:15:59;9;8;
63915;PMS5003;50094;51.356;-0.196;2022-07-19T03:18:27;6;6;
63915;PMS5003;50094;51.356;-0.196;2022-07-19T03:20:54;11;7;
63915;PMS5003;50094;51.356;-0.196;2022-07-19T03:23:22;8;8;
63915;PMS5003;50094;51.356;-0.196;2022-07-19T03:25:49;6;6;
63915;PMS5003;50094;51.356;-0.196;2022-07-19T03:28:17;6;6;
63915;PMS5003;50094;51.356;-0.196;2022-07-19T03:30:44;9;8;
63915;PMS5003;50094;51.356;-0.196;2022-07-19T03:33:12;8;8;
63915;PMS5003;50094;51.356;-0.196;2022-07-19T03:35:39;7;7;
63915;PMS5003;50094;51.356;-0.196;2022-07-19T03:38:08;6;6;
63915;PMS5003;50094;51.356;-0.196;2022-07-19T03:40:36;9;7;
63915;PMS5003;50094;51.356;-0.196;2022-07-19T03:43:03;7;6;
63915;PMS5003;50094;51.356;-0.196;2022-07-19T03:45:31;7;7;
63915;PMS5003;50094;51.356;-0.196;2022-07-19T03:47:58;7;6;
63915;PMS5003;50094;51.356;-0.196;2022-07-19T03:50:26;7;5;
63915;PMS5003;50094;51.356;-0.196;2022-07-19T03:52:54;7;6;
63915;PMS5003;50094;51.356;-0.196;2022-07-19T03:55:21;8;5;
63915;PMS5003;50094;51.356;-0.196;2022-07-19T03:57:48;8;7;
63915;PMS5003;50094;51.356;-0.196;2022-07-19T04:00:16;9;8;
63915;PMS5003;50094;51.356;-0.196;2022-07-19T04:02:43;7;6;
63915;PMS5003;50094;51.356;-0.196;2022-07-19T04:05:11;6;4;
63915;PMS5003;50094;51.356;-0.196;2022-07-19T04:07:38;4;4;
63915;PMS5003;50094;51.356;-0.196;2022-07-19T04:10:06;9;7;
63915;PMS5003;50094;51.356;-0.196;2022-07-19T04:12:34;7;7;
63915;PMS5003;50094;51.356;-0.196;2022-07-19T04:15:02;10;8;
63915;PMS5003;50094;51.356;-0.196;2022-07-19T04:17:30;8;7;
63915;PMS5003;50094;51.356;-0.196;2022-07-19T04:19:57;8;6;
63915;PMS5003;50094;51.356;-0.196;2022-07-19T04:22:25;9;8;
63915;PMS5003;50094;51.356;-0.196;2022-07-19T04:24:53;7;7;
63915;PMS5003;50094;51.356;-0.196;2022-07-19T04:27:19;7;7;
63915;PMS5003;50094;51.356;-0.196;2022-07-19T04:29:47;7;7;
63915;PMS5003;50094;51.356;-0.196;2022-07-19T04:32:15;7;5;
63915;PMS5003;50094;51.356;-0.196;2022-07-19T04:34:42;7;7;
63915;PMS5003;50094;51.356;-0.196;2022-07-19T04:37:09;6;4;
63915;PMS5003;50094;51.356;-0.196;2022-07-19T04:39:37;8;8;
63915;PMS5003;50094;51.356;-0.196;2022-07-19T04:42:04;7;6;
63915;PMS5003;50094;51.356;-0.196;2022-07-19T04:44:32;7;5;
63915;PMS5003;50094;51.356;-0.196;2022-07-19T04:46:59;5;5;
63915;PMS5003;50094;51.356;-0.196;2022-07-19T04:49:27;6;5;
63915;PMS5003;50094;51.356;-0.196;2022-07-19T04:51:54;7;6;
63915;PMS5003;50094;51.356;-0.196;2022-07-19T04:54:22;5;5;
63915;PMS5003;50094;51.356;-0.196;2022-07-19T04:56:50;5;4;
63915;PMS5003;50094;51.356;-0.196;2022-07-19T04:59:18;9;7;
63915;PMS5003;50094;51.356;-0.196;2022-07-19T05:01:45;7;7;
63915;PMS5003;50094;51.356;-0.196;2022-07-19T05:04:13;9;8;
63915;PMS5003;50094;51.356;-0.196;2022-07-19T05:06:41;5;3;
63915;PMS5003;50094;51.356;-0.196;2022-07-19T05:09:08;5;4;
63915;PMS5003;50094;51.356;-0.196;2022-07-19T05:11:36;4;4;
63915;PMS5003;50094;51.356;-0.196;2022-07-19T05:14:03;5;4;
63915;PMS5003;50094;51.356;-0.196;2022-07-19T05:16:31;7;6;
63915;PMS5003;50094;51.356;-0.196;2022-07-19T05:18:59;6;6;
63915;PMS5003;50094;51.356;-0.196;2022-07-19T05:21:26;7;6;
63915;PMS5003;50094;51.356;-0.196;2022-07-19T05:23:54;6;5;
63915;PMS5003;50094;51.356;-0.196;2022-07-19T05:26:21;6;4;
63915;PMS5003;50094;51.356;-0.196;2022-07-19T05:28:49;7;6;
63915;PMS5003;50094;51.356;-0.196;2022-07-19T05:31:17;4;4;
63915;PMS5003;50094;51.356;-0.196;2022-07-19T05:33:44;6;5;
63915;PMS5003;50094;51.356;-0.196;2022-07-19T05:36:12;5;5;
63915;PMS5003;50094;51.356;-0.196;2022-07-19T05:38:40;5;5;
63915;PMS5003;50094;51.356;-0.196;2022-07-19T05:41:07;5;5;
63915;PMS5003;50094;51.356;-0.196;2022-07-19T05:43:36;8;5;
63915;PMS5003;50094;51.356;-0.196;2022-07-19T05:46:05;9;7;
63915;PMS5003;50094;51.356;-0.196;2022-07-19T05:48:33;9;6;
63915;PMS5003;50094;51.356;-0.196;2022-07-19T05:51:00;6;5;
63915;PMS5003;50094;51.356;-0.196;2022-07-19T05:53:28;4;3;
63915;PMS5003;50094;51.356;-0.196;2022-07-19T05:55:55;6;6;
63915;PMS5003;50094;51.356;-0.196;2022-07-19T05:58:23;7;5;
63915;PMS5003;50094;51.356;-0.196;2022-07-19T06:00:51;4;4;
63915;PMS5003;50094;51.356;-0.196;2022-07-19T06:03:18;4;4;
63915;PMS5003;50094;51.356;-0.196;2022-07-19T06:05:46;5;5;
63915;PMS5003;50094;51.356;-0.196;2022-07-19T06:08:14;5;5;
63915;PMS5003;50094;51.356;-0.196;2022-07-19T06:10:41;4;4;
63915;PMS5003;50094;51.356;-0.196;2022-07-19T06:13:09;6;6;
63915;PMS5003;50094;51.356;-0.196;2022-07-19T06:15:36;4;4;
63915;PMS5003;50094;51.356;-0.196;2022-07-19T06:18:04;6;5;
63915;PMS5003;50094;51.356;-0.196;2022-07-19T06:20:31;5;3;
63915;PMS5003;50094;51.356;-0.196;2022-07-19T06:22:59;5;3;
63915;PMS5003;50094;51.356;-0.196;2022-07-19T06:25:27;5;5;
63915;PMS5003;50094;51.356;-0.196;2022-07-19T06:27:54;4;4;
63915;PMS5003;50094;51.356;-0.196;2022-07-19T06:30:22;4;4;
63915;PMS5003;50094;51.356;-0.196;2022-07-19T06:32:50;6;5;
63915;PMS5003;50094;51.356;-0.196;2022-07-19T06:35:17;6;5;
63915;PMS5003;50094;51.356;-0.196;2022-07-19T06:37:45;4;4;
63915;PMS5003;50094;51.356;-0.196;2022-07-19T06:40:12;4;4;
63915;PMS5003;50094;51.356;-0.196;2022-07-19T06:42:40;5;4;
63915;PMS5003;50094;51.356;-0.196;2022-07-19T06:45:08;6;5;
63915;PMS5003;50094;51.356;-0.196;2022-07-19T06:47:36;7;6;
63915;PMS5003;50094;51.356;-0.196;2022-07-19T06:50:04;6;6;
63915;PMS5003;50094;51.356;-0.196;2022-07-19T06:52:31;8;5;
63915;PMS5003;50094;51.356;-0.196;2022-07-19T06:54:59;7;7;
63915;PMS5003;50094;51.356;-0.196;2022-07-19T06:57:27;5;3;
63915;PMS5003;50094;51.356;-0.196;2022-07-19T06:59:54;6;6;
63915;PMS5003;50094;51.356;-0.196;2022-07-19T07:02:22;5;4;
63915;PMS5003;50094;51.356;-0.196;2022-07-19T07:04:49;5;5;
63915;PMS5003;50094;51.356;-0.196;2022-07-19T07:07:17;5;5;
63915;PMS5003;50094;51.356;-0.196;2022-07-19T07:09:44;5;5;
63915;PMS5003;50094;51.356;-0.196;2022-07-19T07:12:12;8;5;
63915;PMS5003;50094;51.356;-0.196;2022-07-19T07:14:40;5;5;
63915;PMS5003;50094;51.356;-0.196;2022-07-19T07:17:07;5;5;
63915;PMS5003;50094;51.356;-0.196;2022-07-19T07:19:35;4;4;
63915;PMS5003;50094;51.356;-0.196;2022-07-19T07:22:03;6;6;
63915;PMS5003;50094;51.356;-0.196;2022-07-19T07:24:31;4;4;
63915;PMS5003;50094;51.356;-0.196;2022-07-19T07:26:59;4;4;
63915;PMS5003;50094;51.356;-0.196;2022-07-19T07:29:27;8;6;
63915;PMS5003;50094;51.356;-0.196;2022-07-19T07:31:55;5;5;
63915;PMS5003;50094;51.356;-0.196;2022-07-19T07:34:22;3;3;
63915;PMS5003;50094;51.356;-0.196;2022-07-19T07:36:50;4;4;
63915;PMS5003;50094;51.356;-0.196;2022-07-19T07:39:17;6;5;
63915;PMS5003;50094;51.356;-0.196;2022-07-19T07:41:45;8;6;
63915;PMS5003;50094;51.356;-0.196;2022-07-19T07:44:18;14;9;
63915;PMS5003;50094;51.356;-0.196;2022-07-19T07:46:45;9;8;
63915;PMS5003;50094;51.356;-0.196;2022-07-19T07:49:13;8;8;
63915;PMS5003;50094;51.356;-0.196;2022-07-19T07:51:40;14;6;
63915;PMS5003;50094;51.356;-0.196;2022-07-19T07:54:08;10;10;
63915;PMS5003;50094;51.356;-0.196;2022-07-19T07:56:35;15;12;
63915;PMS5003;50094;51.356;-0.196;2022-07-19T07:59:02;14;12;
63915;PMS5003;50094;51.356;-0.196;2022-07-19T08:01:30;9;7;
63915;PMS5003;50094;51.356;-0.196;2022-07-19T08:03:57;14;13;
63915;PMS5003;50094;51.356;-0.196;2022-07-19T08:06:24;13;9;
63915;PMS5003;50094;51.356;-0.196;2022-07-19T08:08:52;12;12;
63915;PMS5003;50094;51.356;-0.196;2022-07-19T08:11:20;11;9;
63915;PMS5003;50094;51.356;-0.196;2022-07-19T08:13:48;10;8;
63915;PMS5003;50094;51.356;-0.196;2022-07-19T08:16:15;16;9;
63915;PMS5003;50094;51.356;-0.196;2022-07-19T08:18:43;13;7;
63915;PMS5003;50094;51.356;-0.196;2022-07-19T08:21:11;6;5;
63915;PMS5003;50094;51.356;-0.196;2022-07-19T08:23:38;13;9;
63915;PMS5003;50094;51.356;-0.196;2022-07-19T08:26:06;10;7;
63915;PMS5003;50094;51.356;-0.196;2022-07-19T08:28:33;9;7;
63915;PMS5003;50094;51.356;-0.196;2022-07-19T08:31:01;12;7;
63915;PMS5003;50094;51.356;-0.196;2022-07-19T08:33:28;9;7;
63915;PMS5003;50094;51.356;-0.196;2022-07-19T08:35:55;11;7;
63915;PMS5003;50094;51.356;-0.196;2022-07-19T08:38:22;11;11;
63915;PMS5003;50094;51.356;-0.196;2022-07-19T08:40:51;8;7;
63915;PMS5003;50094;51.356;-0.196;2022-07-19T08:43:19;7;6;
63915;PMS5003;50094;51.356;-0.196;2022-07-19T08:45:47;7;7;
63915;PMS5003;50094;51.356;-0.196;2022-07-19T08:48:15;12;8;
63915;PMS5003;50094;51.356;-0.196;2022-07-19T08:50:43;6;6;
63915;PMS5003;50094;51.356;-0.196;2022-07-19T08:53:12;4;3;
63915;PMS5003;50094;51.356;-0.196;2022-07-19T08:55:40;10;8;
63915;PMS5003;50094;51.356;-0.196;2022-07-19T08:58:08;5;5;
63915;PMS5003;50094;51.356;-0.196;2022-07-19T09:00:36;5;5;
63915;PMS5003;50094;51.356;-0.196;2022-07-19T09:03:04;10;7;
63915;PMS5003;50094;51.356;-0.196;2022-07-19T09:05:34;8;6;
63915;PMS5003;50094;51.356;-0.196;2022-07-19T09:08:04;12;10;
63915;PMS5003;50094;51.356;-0.196;2022-07-19T09:10:34;5;5;
63915;PMS5003;50094;51.356;-0.196;2022-07-19T09:13:04;10;6;
63915;PMS5003;50094;51.356;-0.196;2022-07-19T09:15:36;6;6;
63915;PMS5003;50094;51.356;-0.196;2022-07-19T09:18:06;8;7;
63915;PMS5003;50094;51.356;-0.196;2022-07-19T09:20:36;8;8;
63915;PMS5003;50094;51.356;-0.196;2022-07-19T09:23:05;7;5;
63915;PMS5003;50094;51.356;-0.196;2022-07-19T09:25:35;8;7;
63915;PMS5003;50094;51.356;-0.196;2022-07-19T09:28:04;5;5;
63915;PMS5003;50094;51.356;-0.196;2022-07-19T09:30:33;6;6;
63915;PMS5003;50094;51.356;-0.196;2022-07-19T09:33:07;9;4;
63915;PMS5003;50094;51.356;-0.196;2022-07-19T09:35:36;8;7;
63915;PMS5003;50094;51.356;-0.196;2022-07-19T09:38:38;4;4;
63915;PMS5003;50094;51.356;-0.196;2022-07-19T09:41:08;6;5;
63915;PMS5003;50094;51.356;-0.196;2022-07-19T09:43:48;6;5;
63915;PMS5003;50094;51.356;-0.196;2022-07-19T09:46:33;9;6;
63915;PMS5003;50094;51.356;-0.196;2022-07-19T09:49:03;6;5;
63915;PMS5003;50094;51.356;-0.196;2022-07-19T09:51:34;8;6;
63915;PMS5003;50094;51.356;-0.196;2022-07-19T09:54:03;5;5;
63915;PMS5003;50094;51.356;-0.196;2022-07-19T09:56:32;6;5;
63915;PMS5003;50094;51.356;-0.196;2022-07-19T09:58:59;6;6;
63915;PMS5003;50094;51.356;-0.196;2022-07-19T10:01:28;5;5;
63915;PMS5003;50094;51.356;-0.196;2022-07-19T10:03:58;7;6;
63915;PMS5003;50094;51.356;-0.196;2022-07-19T10:06:33;6;4;
63915;PMS5003;50094;51.356;-0.196;2022-07-19T10:09:01;7;6;
63915;PMS5003;50094;51.356;-0.196;2022-07-19T10:11:30;7;5;
63915;PMS5003;50094;51.356;-0.196;2022-07-19T10:13:58;6;6;
63915;PMS5003;50094;51.356;-0.196;2022-07-19T10:16:28;8;8;
63915;PMS5003;50094;51.356;-0.196;2022-07-19T10:19:08;5;4;
63915;PMS5003;50094;51.356;-0.196;2022-07-19T10:21:43;4;4;
63915;PMS5003;50094;51.356;-0.196;2022-07-19T10:24:10;5;5;
63915;PMS5003;50094;51.356;-0.196;2022-07-19T10:26:38;7;7;
63915;PMS5003;50094;51.356;-0.196;2022-07-19T10:29:08;6;4;
63915;PMS5003;50094;51.356;-0.196;2022-07-19T10:31:37;3;3;
63915;PMS5003;50094;51.356;-0.196;2022-07-19T10:34:06;6;6;
63915;PMS5003;50094;51.356;-0.196;2022-07-19T10:36:36;7;6;
63915;PMS5003;50094;51.356;-0.196;2022-07-19T10:39:20;6;5;
63915;PMS5003;50094;51.356;-0.196;2022-07-19T10:42:07;6;6;
63915;PMS5003;50094;51.356;-0.196;2022-07-19T10:45:08;7;5;
63915;PMS5003;50094;51.356;-0.196;2022-07-19T10:48:11;9;5;
63915;PMS5003;50094;51.356;-0.196;2022-07-19T10:50:56;6;6;
63915;PMS5003;50094;51.356;-0.196;2022-07-19T10:53:56;7;6;
63915;PMS5003;50094;51.356;-0.196;2022-07-19T10:56:27;5;5;
63915;PMS5003;50094;51.356;-0.196;2022-07-19T10:58:58;5;5;
63915;PMS5003;50094;51.356;-0.196;2022-07-19T11:01:28;3;3;
63915;PMS5003;50094;51.356;-0.196;2022-07-19T11:04:21;7;7;
63915;PMS5003;50094;51.356;-0.196;2022-07-19T11:06:50;7;6;
63915;PMS5003;50094;51.356;-0.196;2022-07-19T11:09:18;6;6;
63915;PMS5003;50094;51.356;-0.196;2022-07-19T11:11:46;7;5;
63915;PMS5003;50094;51.356;-0.196;2022-07-19T11:14:14;8;7;
63915;PMS5003;50094;51.356;-0.196;2022-07-19T11:16:46;9;4;
63915;PMS5003;50094;51.356;-0.196;2022-07-19T11:19:26;6;5;
63915;PMS5003;50094;51.356;-0.196;2022-07-19T11:21:53;5;5;
63915;PMS5003;50094;51.356;-0.196;2022-07-19T11:24:20;8;8;
63915;PMS5003;50094;51.356;-0.196;2022-07-19T11:26:48;6;4;
63915;PMS5003;50094;51.356;-0.196;2022-07-19T11:29:16;5;5;
63915;PMS5003;50094;51.356;-0.196;2022-07-19T11:31:45;7;5;
63915;PMS5003;50094;51.356;-0.196;2022-07-19T11:34:13;8;4;
63915;PMS5003;50094;51.356;-0.196;2022-07-19T11:36:40;9;6;
63915;PMS5003;50094;51.356;-0.196;2022-07-19T11:39:08;11;7;
63915;PMS5003;50094;51.356;-0.196;2022-07-19T11:41:36;4;4;
63915;PMS5003;50094;51.356;-0.196;2022-07-19T11:44:04;9;6;
63915;PMS5003;50094;51.356;-0.196;2022-07-19T11:46:33;8;6;
63915;PMS5003;50094;51.356;-0.196;2022-07-19T11:49:02;6;6;
63915;PMS5003;50094;51.356;-0.196;2022-07-19T11:51:31;8;3;
63915;PMS5003;50094;51.356;-0.196;2022-07-19T11:54:00;7;5;
63915;PMS5003;50094;51.356;-0.196;2022-07-19T11:56:29;5;5;
63915;PMS5003;50094;51.356;-0.196;2022-07-19T11:58:58;5;5;
63915;PMS5003;50094;51.356;-0.196;2022-07-19T12:01:27;8;5;
63915;PMS5003;50094;51.356;-0.196;2022-07-19T12:03:56;4;4;
63915;PMS5003;50094;51.356;-0.196;2022-07-19T12:06:41;6;6;
63915;PMS5003;50094;51.356;-0.196;2022-07-19T12:09:09;5;5;
63915;PMS5003;50094;51.356;-0.196;2022-07-19T12:11:39;5;3;
63915;PMS5003;50094;51.356;-0.196;2022-07-19T12:14:16;6;4;
63915;PMS5003;50094;51.356;-0.196;2022-07-19T12:16:45;5;5;
63915;PMS5003;50094;51.356;-0.196;2022-07-19T12:19:13;3;3;
63915;PMS5003;50094;51.356;-0.196;2022-07-19T12:21:41;4;4;
63915;PMS5003;50094;51.356;-0.196;2022-07-19T12:24:09;6;5;
63915;PMS5003;50094;51.356;-0.196;2022-07-19T12:26:40;6;6;
63915;PMS5003;50094;51.356;-0.196;2022-07-19T12:29:18;9;9;
63915;PMS5003;50094;51.356;-0.196;2022-07-19T12:31:47;6;6;
63915;PMS5003;50094;51.356;-0.196;2022-07-19T12:34:16;5;5;
63915;PMS5003;50094;51.356;-0.196;2022-07-19T12:36:44;7;5;
63915;PMS5003;50094;51.356;-0.196;2022-07-19T12:39:20;5;5;
63915;PMS5003;50094;51.356;-0.196;2022-07-19T12:42:05;6;4;
63915;PMS5003;50094;51.356;-0.196;2022-07-19T12:44:33;5;5;
63915;PMS5003;50094;51.356;-0.196;2022-07-19T12:47:02;4;4;
63915;PMS5003;50094;51.356;-0.196;2022-07-19T12:49:47;7;6;
63915;PMS5003;50094;51.356;-0.196;2022-07-19T12:52:15;9;7;
63915;PMS5003;50094;51.356;-0.196;2022-07-19T12:54:42;4;4;
63915;PMS5003;50094;51.356;-0.196;2022-07-19T12:57:10;7;7;
63915;PMS5003;50094;51.356;-0.196;2022-07-19T12:59:37;10;7;
63915;PMS5003;50094;51.356;-0.196;2022-07-19T13:02:05;6;6;
63915;PMS5003;50094;51.356;-0.196;2022-07-19T13:04:34;3;3;
63915;PMS5003;50094;51.356;-0.196;2022-07-19T13:07:01;5;4;
63915;PMS5003;50094;51.356;-0.196;2022-07-19T13:09:29;5;5;
63915;PMS5003;50094;51.356;-0.196;2022-07-19T13:11:57;6;5;
63915;PMS5003;50094;51.356;-0.196;2022-07-19T13:14:25;7;6;
63915;PMS5003;50094;51.356;-0.196;2022-07-19T13:16:53;6;6;
63915;PMS5003;50094;51.356;-0.196;2022-07-19T13:19:20;8;8;
63915;PMS5003;50094;51.356;-0.196;2022-07-19T13:21:48;3;3;
63915;PMS5003;50094;51.356;-0.196;2022-07-19T13:24:16;8;6;
63915;PMS5003;50094;51.356;-0.196;2022-07-19T13:26:43;8;6;
63915;PMS5003;50094;51.356;-0.196;2022-07-19T13:29:10;5;5;
63915;PMS5003;50094;51.356;-0.196;2022-07-19T13:31:38;6;6;
63915;PMS5003;50094;51.356;-0.196;2022-07-19T13:34:06;9;6;
63915;PMS5003;50094;51.356;-0.196;2022-07-19T13:36:33;6;6;
63915;PMS5003;50094;51.356;-0.196;2022-07-19T13:39:01;8;8;
63915;PMS5003;50094;51.356;-0.196;2022-07-19T13:41:28;5;5;
63915;PMS5003;50094;51.356;-0.196;2022-07-19T13:43:56;6;5;
63915;PMS5003;50094;51.356;-0.196;2022-07-19T13:46:24;6;5;
63915;PMS5003;50094;51.356;-0.196;2022-07-19T13:48:51;8;8;
63915;PMS5003;50094;51.356;-0.196;2022-07-19T13:51:23;7;6;
63915;PMS5003;50094;51.356;-0.196;2022-07-19T13:53:50;8;6;
63915;PMS5003;50094;51.356;-0.196;2022-07-19T13:56:18;8;4;
63915;PMS5003;50094;51.356;-0.196;2022-07-19T13:58:46;5;5;
63915;PMS5003;50094;51.356;-0.196;2022-07-19T14:01:14;7;7;
63915;PMS5003;50094;51.356;-0.196;2022-07-19T14:03:41;7;5;
63915;PMS5003;50094;51.356;-0.196;2022-07-19T14:06:09;5;5;
63915;PMS5003;50094;51.356;-0.196;2022-07-19T14:08:36;11;8;
63915;PMS5003;50094;51.356;-0.196;2022-07-19T14:11:04;7;7;
63915;PMS5003;50094;51.356;-0.196;2022-07-19T14:13:32;7;7;
63915;PMS5003;50094;51.356;-0.196;2022-07-19T14:15:59;9;8;
63915;PMS5003;50094;51.356;-0.196;2022-07-19T14:18:27;6;5;
63915;PMS5003;50094;51.356;-0.196;2022-07-19T14:20:54;8;6;
63915;PMS5003;50094;51.356;-0.196;2022-07-19T14:23:23;11;11;
63915;PMS5003;50094;51.356;-0.196;2022-07-19T14:25:50;5;5;
63915;PMS5003;50094;51.356;-0.196;2022-07-19T14:28:18;9;6;
63915;PMS5003;50094;51.356;-0.196;2022-07-19T14:30:45;9;6;
63915;PMS5003;50094;51.356;-0.196;2022-07-19T14:33:13;9;6;
63915;PMS5003;50094;51.356;-0.196;2022-07-19T14:35:40;8;6;
63915;PMS5003;50094;51.356;-0.196;2022-07-19T14:38:08;6;6;
63915;PMS5003;50094;51.356;-0.196;2022-07-19T14:40:35;7;6;
63915;PMS5003;50094;51.356;-0.196;2022-07-19T14:43:03;5;5;
63915;PMS5003;50094;51.356;-0.196;2022-07-19T14:45:30;5;5;
63915;PMS5003;50094;51.356;-0.196;2022-07-19T14:47:58;5;5;
63915;PMS5003;50094;51.356;-0.196;2022-07-19T14:50:26;7;7;
63915;PMS5003;50094;51.356;-0.196;2022-07-19T14:52:53;9;6;
63915;PMS5003;50094;51.356;-0.196;2022-07-19T14:55:21;9;8;
63915;PMS5003;50094;51.356;-0.196;2022-07-19T14:57:48;4;4;
63915;PMS5003;50094;51.356;-0.196;2022-07-19T15:00:16;7;6;
63915;PMS5003;50094;51.356;-0.196;2022-07-19T15:02:44;8;4;
63915;PMS5003;50094;51.356;-0.196;2022-07-19T15:05:11;4;4;
63915;PMS5003;50094;51.356;-0.196;2022-07-19T15:07:39;11;6;
63915;PMS5003;50094;51.356;-0.196;2022-07-19T15:10:07;5;5;
63915;PMS5003;50094;51.356;-0.196;2022-07-19T15:12:35;9;7;
63915;PMS5003;50094;51.356;-0.196;2022-07-19T15:15:02;10;8;
63915;PMS5003;50094;51.356;-0.196;2022-07-19T15:17:30;6;6;
63915;PMS5003;50094;51.356;-0.196;2022-07-19T15:19:57;7;6;
63915;PMS5003;50094;51.356;-0.196;2022-07-19T15:22:25;7;6;
63915;PMS5003;50094;51.356;-0.196;2022-07-19T15:24:52;7;7;
63915;PMS5003;50094;51.356;-0.196;2022-07-19T15:27:20;11;11;
63915;PMS5003;50094;51.356;-0.196;2022-07-19T15:29:47;10;7;
63915;PMS5003;50094;51.356;-0.196;2022-07-19T15:32:14;5;5;
63915;PMS5003;50094;51.356;-0.196;2022-07-19T15:34:42;6;6;
63915;PMS5003;50094;51.356;-0.196;2022-07-19T15:37:09;5;5;
63915;PMS5003;50094;51.356;-0.196;2022-07-19T15:39:37;7;7;
63915;PMS5003;50094;51.356;-0.196;2022-07-19T15:42:05;8;6;
63915;PMS5003;50094;51.356;-0.196;2022-07-19T15:44:32;6;5;
63915;PMS5003;50094;51.356;-0.196;2022-07-19T15:47:00;7;7;
63915;PMS5003;50094;51.356;-0.196;2022-07-19T15:49:28;5;3;
63915;PMS5003;50094;51.356;-0.196;2022-07-19T15:51:56;6;6;
63915;PMS5003;50094;51.356;-0.196;2022-07-19T15:54:23;8;8;
63915;PMS5003;50094;51.356;-0.196;2022-07-19T15:56:51;7;5;
63915;PMS5003;50094;51.356;-0.196;2022-07-19T15:59:19;6;5;
63915;PMS5003;50094;51.356;-0.196;2022-07-19T16:01:46;6;5;
63915;PMS5003;50094;51.356;-0.196;2022-07-19T16:04:14;7;7;
63915;PMS5003;50094;51.356;-0.196;2022-07-19T16:06:41;8;5;
63915;PMS5003;50094;51.356;-0.196;2022-07-19T16:09:09;7;6;
63915;PMS5003;50094;51.356;-0.196;2022-07-19T16:11:36;6;4;
63915;PMS5003;50094;51.356;-0.196;2022-07-19T16:14:04;6;5;
63915;PMS5003;50094;51.356;-0.196;2022-07-19T16:16:31;6;5;
63915;PMS5003;50094;51.356;-0.196;2022-07-19T16:19:01;6;5;
63915;PMS5003;50094;51.356;-0.196;2022-07-19T16:21:28;5;5;
63915;PMS5003;50094;51.356;-0.196;2022-07-19T16:23:56;7;5;
63915;PMS5003;50094;51.356;-0.196;2022-07-19T16:26:24;8;6;
63915;PMS5003;50094;51.356;-0.196;2022-07-19T16:28:51;2;2;
63915;PMS5003;50094;51.356;-0.196;2022-07-19T16:31:18;8;3;
63915;PMS5003;50094;51.356;-0.196;2022-07-19T16:33:46;10;7;
63915;PMS5003;50094;51.356;-0.196;2022-07-19T16:36:14;4;4;